createdAt,value
2023-04-18T00:01:00.148Z,15.77
2023-04-18T00:06:02.259Z,14.77
2023-04-18T00:11:04.072Z,15.60
2023-04-18T00:16:07.726Z,14.35
2023-04-18T00:21:09.602Z,15.95
2023-04-18T00:26:11.517Z,15.40
2023-04-18T00:31:14.836Z,15.35
2023-04-18T00:36:16.689Z,16.17
2023-04-18T00:41:21.788Z,16.52
2023-04-18T00:46:23.627Z,15.10
2023-04-18T00:51:25.770Z,16.25
2023-04-18T00:56:27.851Z,16.33
2023-04-18T01:01:29.644Z,17.00
2023-04-18T01:06:31.983Z,15.48
2023-04-18T01:11:33.770Z,16.15
2023-04-18T01:16:37.091Z,15.43
2023-04-18T01:21:43.693Z,14.70
2023-04-18T01:26:48.215Z,14.35
2023-04-18T01:31:50.320Z,15.77
2023-04-18T01:36:52.117Z,13.10
2023-04-18T01:41:53.936Z,15.63
2023-04-18T01:46:55.808Z,14.50
2023-04-18T01:51:57.716Z,15.48
2023-04-18T01:56:59.490Z,14.88
2023-04-18T02:02:01.398Z,14.20
2023-04-18T02:07:03.331Z,15.70
2023-04-18T02:12:05.426Z,13.60
2023-04-18T02:17:07.254Z,15.40
2023-04-18T02:22:09.023Z,14.85
2023-04-18T02:27:11.194Z,14.30
2023-04-18T02:32:13.158Z,15.07
2023-04-18T02:37:18.328Z,17.38
2023-04-18T02:42:20.300Z,16.63
2023-04-18T02:47:22.096Z,14.88
2023-04-18T02:52:25.681Z,16.17
2023-04-18T02:57:27.558Z,14.07
2023-04-18T03:02:38.526Z,15.93
2023-04-18T03:07:55.318Z,15.15
2023-04-18T03:12:57.288Z,14.15
2023-04-18T03:18:00.192Z,16.95
2023-04-18T03:23:06.626Z,10.05
2023-04-18T03:28:09.964Z,14.25
2023-04-18T03:33:14.760Z,17.42
2023-04-18T03:38:17.625Z,14.00
2023-04-18T03:43:20.989Z,14.55
2023-04-18T03:48:22.999Z,16.88
2023-04-18T03:53:25.460Z,17.15
2023-04-18T03:58:27.451Z,15.05
2023-04-18T04:03:30.440Z,12.70
2023-04-18T04:08:34.093Z,12.48
2023-04-18T04:13:36.720Z,12.32
2023-04-18T04:18:38.732Z,12.98
2023-04-18T04:23:42.382Z,13.60
2023-04-18T04:28:48.579Z,13.88
2023-04-18T04:33:55.618Z,16.38
2023-04-18T04:38:59.115Z,14.07
2023-04-18T04:44:09.509Z,13.07
2023-04-18T04:49:12.109Z,14.60
2023-04-18T04:54:14.449Z,12.88
2023-04-18T04:59:16.771Z,15.23
2023-04-18T05:04:20.484Z,15.07
2023-04-18T05:09:22.381Z,16.88
2023-04-18T05:14:24.157Z,20.67
2023-04-18T05:19:25.920Z,22.75
2023-04-18T05:24:27.727Z,20.38
2023-04-18T05:29:29.586Z,19.45
2023-04-18T05:34:31.793Z,21.27
2023-04-18T05:39:33.675Z,24.98
2023-04-18T05:44:35.861Z,20.38
2023-04-18T05:49:37.648Z,20.65
2023-04-18T05:54:39.396Z,20.45
2023-04-18T05:59:41.210Z,21.15
2023-04-18T06:04:43.314Z,28.02
2023-04-18T06:09:45.401Z,23.10
2023-04-18T06:14:47.155Z,27.02
2023-04-18T06:19:48.899Z,27.40
2023-04-18T06:24:51.063Z,20.63
2023-04-18T06:29:52.778Z,19.70
2023-04-18T06:34:54.541Z,20.70
2023-04-18T06:39:56.417Z,16.88
2023-04-18T06:44:58.160Z,13.07
2023-04-18T06:49:59.885Z,15.38
2023-04-18T06:55:01.637Z,15.82
2023-04-18T07:00:05.159Z,17.02
2023-04-18T07:05:07.528Z,17.05
2023-04-18T07:10:11.219Z,14.35
2023-04-18T07:15:13.051Z,17.30
2023-04-18T07:20:14.830Z,16.52
2023-04-18T07:25:16.676Z,19.05
2023-04-18T07:30:18.896Z,18.30
2023-04-18T07:35:21.645Z,18.58
2023-04-18T07:40:23.428Z,15.57
2023-04-18T07:45:25.734Z,14.82
2023-04-18T07:50:27.857Z,13.82
2023-04-18T07:55:30.650Z,15.63
2023-04-18T08:00:32.793Z,14.60
2023-04-18T08:05:34.828Z,12.13
2023-04-18T08:10:37.586Z,11.88
2023-04-18T08:15:40.426Z,13.57
2023-04-18T08:20:42.202Z,11.20
2023-04-18T08:25:44.147Z,9.45
2023-04-18T08:30:49.088Z,9.65
2023-04-18T08:35:54.270Z,8.90
2023-04-18T08:40:56.054Z,7.95
2023-04-18T08:45:59.800Z,17.48
2023-04-18T08:51:02.100Z,13.52
2023-04-18T08:56:05.435Z,9.90
2023-04-18T09:01:07.556Z,9.68
2023-04-18T09:06:19.381Z,11.13
2023-04-18T09:11:29.265Z,13.80
2023-04-18T09:16:46.860Z,13.27
2023-04-18T09:22:01.267Z,12.77
2023-04-18T09:27:04.001Z,12.10
2023-04-18T09:32:05.774Z,13.27
2023-04-18T09:37:14.370Z,10.80
2023-04-18T09:42:16.386Z,13.90
2023-04-18T09:47:18.201Z,13.15
2023-04-18T09:52:21.072Z,10.88
2023-04-18T09:57:28.608Z,14.73
2023-04-18T10:02:39.922Z,12.05
2023-04-18T10:07:45.284Z,13.27
2023-04-18T10:12:48.684Z,15.15
2023-04-18T10:18:05.142Z,14.88
2023-04-18T10:23:48.855Z,13.30
2023-04-18T10:28:54.639Z,12.93
2023-04-18T10:34:05.119Z,14.23
2023-04-18T10:39:25.415Z,14.70
2023-04-18T10:44:27.560Z,12.10
2023-04-18T10:49:32.866Z,13.65
2023-04-18T10:54:55.202Z,13.80
2023-04-18T10:59:58.139Z,13.20
2023-04-18T11:05:02.140Z,10.95
2023-04-18T11:10:05.483Z,12.65
2023-04-18T11:15:11.592Z,15.63
2023-04-18T11:20:14.881Z,12.40
2023-04-18T11:25:17.940Z,11.70
2023-04-18T11:30:19.794Z,13.00
2023-04-18T11:35:21.618Z,10.52
2023-04-18T11:40:23.531Z,11.43
2023-04-18T11:45:25.862Z,10.10
2023-04-18T11:50:27.797Z,12.57
2023-04-18T11:55:29.625Z,10.95
2023-04-18T12:00:44.342Z,11.55
2023-04-18T12:05:46.697Z,11.55
2023-04-18T12:10:53.555Z,11.98
2023-04-18T12:15:55.454Z,11.32
2023-04-18T12:20:58.596Z,13.07
2023-04-18T12:26:08.045Z,14.85
2023-04-18T12:31:09.866Z,14.15
2023-04-18T12:36:11.760Z,15.85
2023-04-18T12:41:13.559Z,13.57
2023-04-18T12:46:15.364Z,16.17
2023-04-18T12:51:17.222Z,13.73
2023-04-18T12:56:19.089Z,13.02
2023-04-18T13:01:20.935Z,13.57
2023-04-18T13:06:24.433Z,14.93
2023-04-18T13:11:28.555Z,13.10
2023-04-18T13:16:30.777Z,12.90
2023-04-18T13:21:32.549Z,11.38
2023-04-18T13:26:35.995Z,10.38
2023-04-18T13:31:37.819Z,8.95
2023-04-18T13:36:39.662Z,10.07
2023-04-18T13:41:42.055Z,9.77
2023-04-18T13:46:43.804Z,10.75
2023-04-18T13:51:46.471Z,11.00
2023-04-18T13:56:48.270Z,8.68
2023-04-18T14:01:50.229Z,10.02
2023-04-18T14:06:52.078Z,8.88
2023-04-18T14:11:53.844Z,8.63
2023-04-18T14:16:55.626Z,12.25
2023-04-18T14:21:57.479Z,8.73
2023-04-18T14:26:59.229Z,9.40
2023-04-18T14:32:01.403Z,9.45
2023-04-18T14:37:03.575Z,10.32
2023-04-18T14:42:05.503Z,9.43
2023-04-18T14:47:07.252Z,9.05
2023-04-18T14:52:09.129Z,10.75
2023-04-18T14:57:12.737Z,10.60
2023-04-18T15:02:14.570Z,10.25
2023-04-18T15:07:16.703Z,10.30
2023-04-18T15:12:18.506Z,11.48
2023-04-18T15:17:20.287Z,10.73
2023-04-18T15:22:22.762Z,11.65
2023-04-18T15:27:24.557Z,9.25
2023-04-18T15:32:26.675Z,9.75
2023-04-18T15:37:28.687Z,9.45
2023-04-18T15:42:30.537Z,9.50
2023-04-18T15:47:34.010Z,8.77
2023-04-18T15:52:36.659Z,9.50
2023-04-18T15:57:38.636Z,9.98
2023-04-18T16:02:40.441Z,12.70
2023-04-18T16:07:42.676Z,8.63
2023-04-18T16:12:45.011Z,8.70
2023-04-18T16:17:46.896Z,5.93
2023-04-18T16:22:49.017Z,6.20
2023-04-18T16:27:51.019Z,6.10
2023-04-18T16:32:53.148Z,5.80
2023-04-18T16:37:55.012Z,5.43
2023-04-18T16:42:57.387Z,6.32
2023-04-18T16:47:59.232Z,15.93
2023-04-18T16:53:01.667Z,4.95
2023-04-18T16:58:03.580Z,4.50
2023-04-18T17:03:07.281Z,3.70
2023-04-18T17:08:09.214Z,3.22
2023-04-18T17:13:11.159Z,3.80
2023-04-18T17:18:12.977Z,3.22
2023-04-18T17:23:14.952Z,5.57
2023-04-18T17:28:16.838Z,3.40
2023-04-18T17:33:18.734Z,3.83
2023-04-18T17:38:20.527Z,4.40
2023-04-18T17:43:22.365Z,3.85
2023-04-18T17:48:24.307Z,3.65
2023-04-18T17:53:26.790Z,4.28
2023-04-18T17:58:28.615Z,6.57
2023-04-18T18:03:30.510Z,4.75
2023-04-18T18:08:32.496Z,4.15
2023-04-18T18:13:35.546Z,4.13
2023-04-18T18:18:38.072Z,4.20
2023-04-18T18:23:41.318Z,6.07
2023-04-18T18:28:43.101Z,3.13
2023-04-18T18:33:45.244Z,4.07
2023-04-18T18:38:47.157Z,3.63
2023-04-18T18:43:49.865Z,3.67
2023-04-18T18:48:51.958Z,4.18
2023-04-18T18:53:55.158Z,4.43
2023-04-18T18:58:56.994Z,5.00
2023-04-18T19:03:59.385Z,4.68
2023-04-18T19:09:01.359Z,5.65
2023-04-18T19:14:03.409Z,4.97
2023-04-18T19:19:05.321Z,5.03
2023-04-18T19:24:07.144Z,6.07
2023-04-18T19:29:11.040Z,6.43
2023-04-18T19:34:13.581Z,7.03
2023-04-18T19:39:16.741Z,6.57
2023-04-18T19:44:18.602Z,7.53
2023-04-18T19:49:22.471Z,8.65
2023-04-18T19:54:24.449Z,8.55
2023-04-18T19:59:26.763Z,9.27
2023-04-18T20:04:28.888Z,10.88
2023-04-18T20:09:31.246Z,8.68
2023-04-18T20:14:33.403Z,8.68
2023-04-18T20:19:35.693Z,8.00
2023-04-18T20:24:39.423Z,8.98
2023-04-18T20:29:41.358Z,10.32
2023-04-18T20:34:43.477Z,8.95
2023-04-18T20:39:45.668Z,10.00
2023-04-18T20:44:47.789Z,10.32
2023-04-18T20:49:49.873Z,11.80
2023-04-18T20:54:51.655Z,10.60
2023-04-18T20:59:54.592Z,10.13
2023-04-18T21:04:59.104Z,9.85
2023-04-18T21:10:00.869Z,10.50
2023-04-18T21:15:02.740Z,9.55
2023-04-18T21:20:04.839Z,10.75
2023-04-18T21:25:07.609Z,12.35
2023-04-18T21:30:09.535Z,10.70
2023-04-18T21:35:11.741Z,11.35
2023-04-18T21:40:14.312Z,10.77
2023-04-18T21:45:16.241Z,10.38
2023-04-18T21:50:18.198Z,11.50
2023-04-18T21:55:20.150Z,10.38
2023-04-18T22:00:21.951Z,12.13
2023-04-18T22:05:26.192Z,11.20
2023-04-18T22:10:28.012Z,12.98
2023-04-18T22:15:30.207Z,12.32
2023-04-18T22:20:33.580Z,11.60
2023-04-18T22:25:35.500Z,12.27
2023-04-18T22:30:37.285Z,14.55
2023-04-18T22:35:39.062Z,12.57
2023-04-18T22:40:40.783Z,13.00
2023-04-18T22:45:42.677Z,12.43
2023-04-18T22:50:46.210Z,15.90
2023-04-18T22:55:48.026Z,16.23
2023-04-18T23:00:50.259Z,13.35
2023-04-18T23:05:52.437Z,15.45
2023-04-18T23:10:54.370Z,12.57
2023-04-18T23:15:56.188Z,15.95
2023-04-18T23:21:00.015Z,13.10
2023-04-18T23:26:01.817Z,13.00
2023-04-18T23:31:03.601Z,14.38
2023-04-18T23:36:06.498Z,13.60
2023-04-18T23:41:08.811Z,11.80
2023-04-18T23:46:12.042Z,13.40
2023-04-18T23:51:13.856Z,13.13
2023-04-18T23:56:15.865Z,14.23
